Penasse, Minnesota
Current Conditions -  °F | °C
As of 6:34 PM on Monday 24 Nov 2014 (Local Time) from KFGN Reporting Station
Clear Clear  
Wind Chill: -8°   Ceiling: Unl
Heat Index:   Visibility: 10mi
Dew Point:   Wind: 15mph
Humidity: 92%   Direction: 300°WNW
Pressure: 29.86"   Gusts: NA
Location:  49.2652°N, 95.0542°W
Report Text: KFGN 250034Z AUTO 30013KT 10SM CLR M13/M14 A2986 RMK AO2
Loading
Personal Weather Stations






























Interactive Weather Map New forecast layout! Learn more

10-Day Weather Forecast

Advertisements
Track Severe Weather on mobile